Time;durP1;ratioP1;P1;durP2;ratioP2;P2;SDS_P1;SDS_P2;PMS_P1;PMS_P2;Temp;Humidity;BMP_temperature;BMP_pressure;BME280_temperature;BME280_humidity;BME280_pressure;Samples;Min_cycle;Max_cycle;Signal;HPM_P1;HPM_P2
2023/11/13 00:02:55;;;;;;;17.75;9.38;;;;;;;;;;10214746;29;20496;-57
2023/11/13 00:07:57;;;;;;;15.13;9.68;;;;;;;;;;10206253;29;20032;-58
2023/11/13 00:12:57;;;;;;;13.70;9.10;;;;;;;;;;10206261;29;20151;-57
2023/11/13 00:17:59;;;;;;;19.25;10.32;;;;;;;;;;10205169;29;20128;-57
2023/11/13 00:22:59;;;;;;;15.60;9.20;;;;;;;;;;10195342;29;20035;-57
2023/11/13 00:28:00;;;;;;;13.35;8.73;;;;;;;;;;10202073;29;20508;-58
2023/11/13 00:33:00;;;;;;;13.95;8.95;;;;;;;;;;10216074;29;20034;-58
2023/11/13 00:38:01;;;;;;;14.25;8.65;;;;;;;;;;10228060;29;20031;-58
2023/11/13 00:43:02;;;;;;;12.45;9.38;;;;;;;;;;10216084;28;20038;-57
2023/11/13 00:48:02;;;;;;;18.20;10.15;;;;;;;;;;10205111;29;20043;-58
2023/11/13 00:53:03;;;;;;;14.07;9.40;;;;;;;;;;10229892;28;20059;-57
2023/11/13 00:58:04;;;;;;;13.90;9.32;;;;;;;;;;10228727;29;20028;-57
2023/11/13 01:03:05;;;;;;;15.30;10.30;;;;;;;;;;10222736;29;20035;-58
2023/11/13 01:08:05;;;;;;;14.20;9.07;;;;;;;;;;10219698;28;20040;-57
2023/11/13 01:13:06;;;;;;;12.25;9.50;;;;;;;;;;10221671;29;20151;-58
2023/11/13 01:18:07;;;;;;;13.73;9.07;;;;;;;;;;10208707;28;20071;-58
2023/11/13 01:23:08;;;;;;;13.77;9.23;;;;;;;;;;10195894;29;20484;-58
2023/11/13 01:28:09;;;;;;;16.42;10.63;;;;;;;;;;10200279;29;20020;-58
2023/11/13 01:33:10;;;;;;;12.25;9.02;;;;;;;;;;10232972;28;20047;-58
2023/11/13 01:38:11;;;;;;;15.10;9.55;;;;;;;;;;10223443;29;20032;-56
2023/11/13 01:43:21;;;;;;;15.10;9.20;;;;;;;;;;10222079;29;20034;-55
2023/11/13 01:48:23;;;;;;;12.90;8.90;;;;;;;;;;10221379;29;20103;-58
2023/11/13 01:53:25;;;;;;;13.02;9.50;;;;;;;;;;10196723;29;20047;-57
2023/11/13 01:58:26;;;;;;;15.20;9.68;;;;;;;;;;10220642;29;20492;-56
2023/11/13 02:03:28;;;;;;;11.13;8.95;;;;;;;;;;10216284;29;20074;-58
2023/11/13 02:08:29;;;;;;;13.98;9.82;;;;;;;;;;10232564;29;20028;-57
2023/11/13 02:13:29;;;;;;;16.00;8.68;;;;;;;;;;10200059;29;20047;-58
2023/11/13 02:18:38;;;;;;;13.85;9.52;;;;;;;;;;10207587;29;20019;-55
2023/11/13 02:23:38;;;;;;;;;;;;;;;;;;10209468;29;20031;-56
2023/11/13 02:28:39;;;;;;;12.13;8.80;;;;;;;;;;10217934;29;20362;-56
2023/11/13 02:33:40;;;;;;;15.80;10.05;;;;;;;;;;10209619;28;20461;-57
2023/11/13 02:38:40;;;;;;;13.48;8.77;;;;;;;;;;10208254;29;20032;-57
2023/11/13 02:43:41;;;;;;;12.45;9.20;;;;;;;;;;10208065;29;20369;-58
2023/11/13 02:48:41;;;;;;;12.82;9.35;;;;;;;;;;10207778;29;20431;-57
2023/11/13 02:53:42;;;;;;;12.65;8.88;;;;;;;;;;10214455;29;20074;-57
2023/11/13 02:58:42;;;;;;;11.95;8.77;;;;;;;;;;10211764;28;20042;-57
2023/11/13 03:03:44;;;;;;;12.60;8.80;;;;;;;;;;10237262;29;20043;-55
2023/11/13 03:08:45;;;;;;;13.00;9.23;;;;;;;;;;10220780;28;20039;-56
2023/11/13 03:13:46;;;;;;;14.38;9.60;;;;;;;;;;10199854;29;20528;-55
2023/11/13 03:18:47;;;;;;;13.85;8.95;;;;;;;;;;10209179;29;20039;-53
2023/11/13 03:23:48;;;;;;;12.63;8.32;;;;;;;;;;10205569;29;20391;-55
2023/11/13 03:28:48;;;;;;;12.90;8.48;;;;;;;;;;10209388;29;20027;-54
2023/11/13 03:33:49;;;;;;;12.52;8.55;;;;;;;;;;10205009;29;20027;-57
2023/11/13 03:38:50;;;;;;;13.18;8.68;;;;;;;;;;10204342;29;20019;-55
2023/11/13 03:43:50;;;;;;;13.75;8.77;;;;;;;;;;10205355;29;20039;-53
2023/11/13 03:48:51;;;;;;;12.63;8.63;;;;;;;;;;10217403;28;20073;-55
2023/11/13 03:53:52;;;;;;;11.38;8.48;;;;;;;;;;10215358;28;20163;-56
2023/11/13 03:58:53;;;;;;;10.80;8.18;;;;;;;;;;10217709;29;20487;-56
2023/11/13 04:03:54;;;;;;;9.90;7.85;;;;;;;;;;10203844;29;20042;-55
2023/11/13 04:08:54;;;;;;;10.13;8.00;;;;;;;;;;10213029;29;20046;-55
2023/11/13 04:13:56;;;;;;;10.77;8.13;;;;;;;;;;10205635;29;20028;-55
2023/11/13 04:18:56;;;;;;;11.60;7.95;;;;;;;;;;10191984;29;20480;-58
2023/11/13 04:24:01;;;;;;;12.18;8.07;;;;;;;;;;10209555;29;20035;-58
2023/11/13 04:29:01;;;;;;;10.07;7.72;;;;;;;;;;10211519;29;20103;-57
2023/11/13 04:34:05;;;;;;;10.40;8.23;;;;;;;;;;10204216;29;20047;-56
2023/11/13 04:39:09;;;;;;;13.52;7.47;;;;;;;;;;10204608;29;20419;-55
2023/11/13 04:44:09;;;;;;;11.68;8.07;;;;;;;;;;10202950;29;20028;-55
2023/11/13 04:49:10;;;;;;;11.02;8.65;;;;;;;;;;10203279;29;20020;-53
2023/11/13 04:54:11;;;;;;;14.23;7.75;;;;;;;;;;10202331;29;20048;-57
2023/11/13 04:59:11;;;;;;;11.13;8.15;;;;;;;;;;10208943;29;20404;-57
2023/11/13 05:04:13;;;;;;;8.88;6.97;;;;;;;;;;10222417;29;20094;-58
2023/11/13 05:09:14;;;;;;;8.73;7.28;;;;;;;;;;10229346;29;20019;-56
2023/11/13 05:14:15;;;;;;;11.32;8.00;;;;;;;;;;10210246;29;20032;-57
2023/11/13 05:19:16;;;;;;;10.73;7.35;;;;;;;;;;10210270;29;20028;-56
2023/11/13 05:24:16;;;;;;;9.35;6.93;;;;;;;;;;10209920;29;20039;-56
2023/11/13 05:29:17;;;;;;;9.80;7.57;;;;;;;;;;10211031;29;20031;-56
2023/11/13 05:34:19;;;;;;;8.43;6.65;;;;;;;;;;10209890;29;20118;-57
2023/11/13 05:39:21;;;;;;;11.00;7.70;;;;;;;;;;10208492;29;20024;-57
2023/11/13 05:44:22;;;;;;;12.05;7.45;;;;;;;;;;10209020;29;20159;-56
2023/11/13 05:49:22;;;;;;;8.30;6.60;;;;;;;;;;10216094;29;20479;-56
2023/11/13 05:54:23;;;;;;;9.15;7.13;;;;;;;;;;10226028;28;20536;-56
2023/11/13 05:59:24;;;;;;;8.80;6.72;;;;;;;;;;10207687;29;20051;-57
2023/11/13 06:04:25;;;;;;;9.27;7.30;;;;;;;;;;10216319;29;20059;-58
2023/11/13 06:09:26;;;;;;;10.50;7.40;;;;;;;;;;10233803;29;20031;-58
2023/11/13 06:14:27;;;;;;;8.55;6.95;;;;;;;;;;10232607;28;20046;-60
2023/11/13 06:19:28;;;;;;;9.52;7.15;;;;;;;;;;10218912;28;20040;-59
2023/11/13 06:24:29;;;;;;;12.30;6.63;;;;;;;;;;10219702;29;20032;-60
2023/11/13 06:29:29;;;;;;;14.80;6.43;;;;;;;;;;10218563;29;20043;-62
2023/11/13 06:34:30;;;;;;;7.00;5.80;;;;;;;;;;10207689;29;20028;-58
2023/11/13 06:39:31;;;;;;;8.93;6.78;;;;;;;;;;10207760;29;20028;-59
2023/11/13 06:44:33;;;;;;;10.25;6.60;;;;;;;;;;10216060;29;20035;-56
2023/11/13 06:49:38;;;;;;;9.18;6.45;;;;;;;;;;10195657;29;20173;-58
2023/11/13 06:54:40;;;;;;;7.72;6.18;;;;;;;;;;10204862;28;20040;-60
2023/11/13 06:59:41;;;;;;;14.05;6.82;;;;;;;;;;10208444;29;20031;-57
2023/11/13 07:04:41;;;;;;;9.80;6.50;;;;;;;;;;10229382;29;20035;-57
2023/11/13 07:09:42;;;;;;;11.23;6.68;;;;;;;;;;10217781;29;20056;-57
2023/11/13 07:14:43;;;;;;;8.70;6.28;;;;;;;;;;10218296;29;20271;-56
2023/11/13 07:19:43;;;;;;;8.25;5.82;;;;;;;;;;10205721;29;20488;-58
2023/11/13 07:24:45;;;;;;;10.60;6.13;;;;;;;;;;10204906;29;20024;-57
2023/11/13 07:29:48;;;;;;;7.40;5.57;;;;;;;;;;10216140;29;20070;-58
2023/11/13 07:34:48;;;;;;;6.90;5.78;;;;;;;;;;10205628;29;20031;-57
2023/11/13 07:39:51;;;;;;;8.02;5.82;;;;;;;;;;10205566;29;20406;-57
2023/11/13 07:44:52;;;;;;;8.30;6.00;;;;;;;;;;10217750;29;20039;-57
2023/11/13 07:49:56;;;;;;;6.80;5.55;;;;;;;;;;10228862;29;20062;-57
2023/11/13 07:54:58;;;;;;;9.00;5.80;;;;;;;;;;10230392;28;20030;-58
2023/11/13 07:59:59;;;;;;;6.13;4.85;;;;;;;;;;10204009;29;20400;-57
2023/11/13 08:05:00;;;;;;;7.75;5.20;;;;;;;;;;10214268;29;20023;-57
2023/11/13 08:10:03;;;;;;;7.45;5.57;;;;;;;;;;10217969;29;20467;-57
2023/11/13 08:15:04;;;;;;;5.65;4.93;;;;;;;;;;10205715;29;20035;-58
2023/11/13 08:20:08;;;;;;;6.10;5.15;;;;;;;;;;10215922;29;20066;-57
2023/11/13 08:25:12;;;;;;;11.23;5.40;;;;;;;;;;10205281;29;20039;-57
2023/11/13 08:30:14;;;;;;;6.35;5.28;;;;;;;;;;10218583;28;20031;-57
2023/11/13 08:35:15;;;;;;;6.07;5.00;;;;;;;;;;10234818;29;20177;-57
2023/11/13 08:40:23;;;;;;;9.38;5.65;;;;;;;;;;10236149;29;20074;-56
2023/11/13 08:45:24;;;;;;;6.05;4.57;;;;;;;;;;10236379;29;20387;-54
2023/11/13 08:50:24;;;;;;;6.72;5.25;;;;;;;;;;10232085;29;20043;-55
2023/11/13 08:55:25;;;;;;;8.05;5.13;;;;;;;;;;10232047;28;20027;-57
2023/11/13 09:00:28;;;;;;;7.88;4.50;;;;;;;;;;10227640;28;20031;-55
2023/11/13 09:05:29;;;;;;;6.65;4.65;;;;;;;;;;10237235;28;20392;-57
2023/11/13 09:10:31;;;;;;;6.47;4.47;;;;;;;;;;10227562;29;20083;-58
2023/11/13 09:15:32;;;;;;;8.52;4.78;;;;;;;;;;10212044;29;20047;-57
2023/11/13 09:20:41;;;;;;;5.93;4.68;;;;;;;;;;10211093;29;20035;-56
2023/11/13 09:25:42;;;;;;;6.60;4.60;;;;;;;;;;10226278;29;20043;-57
2023/11/13 09:30:43;;;;;;;7.38;4.65;;;;;;;;;;10210593;29;20039;-56
2023/11/13 09:35:45;;;;;;;9.73;4.78;;;;;;;;;;10209620;29;20020;-57
2023/11/13 09:40:47;;;;;;;5.30;4.40;;;;;;;;;;10212855;29;20046;-58
2023/11/13 09:45:52;;;;;;;4.80;4.05;;;;;;;;;;10213671;29;20069;-57
2023/11/13 09:50:53;;;;;;;7.80;4.88;;;;;;;;;;10234458;29;20035;-58
2023/11/13 09:55:54;;;;;;;6.10;4.30;;;;;;;;;;10219657;29;20475;-57
2023/11/13 10:00:56;;;;;;;5.22;4.13;;;;;;;;;;10212773;29;20546;-60
2023/11/13 10:05:57;;;;;;;5.80;4.03;;;;;;;;;;10225422;29;20098;-57
2023/11/13 10:10:57;;;;;;;6.03;3.97;;;;;;;;;;10224984;29;20084;-55
2023/11/13 10:16:16;;;;;;;6.57;4.35;;;;;;;;;;10226882;28;20383;-56
2023/11/13 10:21:41;;;;;;;5.10;4.40;;;;;;;;;;10217410;29;20523;-58
2023/11/13 10:26:51;;;;;;;7.55;4.10;;;;;;;;;;10223299;29;21771;-57
2023/11/13 10:31:58;;;;;;;4.85;3.50;;;;;;;;;;10218688;29;20114;-59
2023/11/13 10:37:11;;;;;;;5.38;3.92;;;;;;;;;;10215048;29;20470;-61
2023/11/13 10:42:22;;;;;;;5.18;3.70;;;;;;;;;;10196023;29;20500;-53
2023/11/13 10:47:30;;;;;;;4.30;3.70;;;;;;;;;;10215120;29;20377;-56
2023/11/13 10:52:31;;;;;;;7.50;3.92;;;;;;;;;;10202230;29;20067;-55
2023/11/13 10:57:31;;;;;;;4.75;3.45;;;;;;;;;;10205928;29;20058;-55
2023/11/13 11:02:40;;;;;;;3.92;3.53;;;;;;;;;;10200109;29;20102;-55
2023/11/13 11:07:43;;;;;;;4.15;3.55;;;;;;;;;;10220305;29;20488;-56
2023/11/13 11:12:48;;;;;;;3.58;2.67;;;;;;;;;;10220138;29;20040;-57
2023/11/13 11:18:01;;;;;;;4.85;3.63;;;;;;;;;;10214246;29;20031;-55
2023/11/13 11:23:07;;;;;;;4.47;3.33;;;;;;;;;;10228180;29;20027;-61
2023/11/13 11:28:52;;;;;;;4.28;3.00;;;;;;;;;;10207763;29;20039;-57
2023/11/13 11:33:55;;;;;;;3.92;3.47;;;;;;;;;;10229716;29;20106;-61
2023/11/13 11:39:10;;;;;;;5.72;3.58;;;;;;;;;;10215464;29;20106;-58
2023/11/13 11:44:13;;;;;;;4.88;3.55;;;;;;;;;;10215323;28;20032;-57
2023/11/13 11:49:26;;;;;;;3.67;3.38;;;;;;;;;;10215823;28;20031;-57
2023/11/13 11:54:29;;;;;;;4.97;3.40;;;;;;;;;;10220852;29;20051;-58
2023/11/13 11:59:31;;;;;;;4.60;3.25;;;;;;;;;;10219610;28;20027;-57
2023/11/13 12:04:33;;;;;;;4.35;3.10;;;;;;;;;;10214069;28;20369;-59
2023/11/13 12:09:33;;;;;;;4.32;3.17;;;;;;;;;;10211819;29;20118;-59
2023/11/13 12:14:35;;;;;;;4.00;3.08;;;;;;;;;;10221133;28;20377;-57
2023/11/13 12:19:35;;;;;;;4.28;3.28;;;;;;;;;;10209206;29;20373;-56
2023/11/13 12:24:36;;;;;;;3.15;2.83;;;;;;;;;;10204277;29;20339;-56
2023/11/13 12:29:37;;;;;;;4.97;3.22;;;;;;;;;;10203791;29;20167;-57
2023/11/13 12:34:37;;;;;;;3.20;2.80;;;;;;;;;;10204556;29;20036;-57
2023/11/13 12:39:41;;;;;;;3.40;2.78;;;;;;;;;;10196960;29;20388;-56
2023/11/13 12:44:42;;;;;;;5.00;2.92;;;;;;;;;;10206938;29;20380;-57
2023/11/13 12:49:43;;;;;;;3.55;3.10;;;;;;;;;;10199355;29;20044;-57
2023/11/13 12:54:48;;;;;;;5.57;2.60;;;;;;;;;;10201416;29;20047;-58
2023/11/13 12:59:49;;;;;;;4.18;3.33;;;;;;;;;;10202872;29;20031;-61
2023/11/13 13:04:51;;;;;;;4.38;2.95;;;;;;;;;;10206261;29;20043;-57
2023/11/13 13:09:51;;;;;;;4.35;2.90;;;;;;;;;;10207765;28;20039;-58
2023/11/13 13:14:53;;;;;;;5.28;3.60;;;;;;;;;;10204111;29;20047;-57
2023/11/13 13:19:56;;;;;;;3.13;2.83;;;;;;;;;;10210692;28;20434;-58
2023/11/13 13:24:56;;;;;;;3.65;2.88;;;;;;;;;;10213085;29;20091;-58
2023/11/13 13:29:57;;;;;;;2.85;2.58;;;;;;;;;;10218204;29;20036;-61
2023/11/13 13:34:58;;;;;;;4.40;2.88;;;;;;;;;;10211057;29;20027;-59
2023/11/13 13:39:59;;;;;;;3.25;2.95;;;;;;;;;;10205675;29;20036;-57
2023/11/13 13:44:59;;;;;;;3.25;2.80;;;;;;;;;;10205393;29;20035;-57
2023/11/13 13:50:01;;;;;;;5.55;2.80;;;;;;;;;;10204810;29;20404;-58
2023/11/13 13:55:09;;;;;;;3.80;2.97;;;;;;;;;;10209374;29;20020;-58
2023/11/13 14:00:28;;;;;;;3.15;2.85;;;;;;;;;;10211958;29;20448;-57
2023/11/13 14:05:29;;;;;;;2.92;2.63;;;;;;;;;;10211744;29;20031;-61
2023/11/13 14:10:39;;;;;;;2.58;2.30;;;;;;;;;;10215900;29;20035;-61
2023/11/13 14:15:41;;;;;;;2.90;2.60;;;;;;;;;;10213595;28;20086;-58
2023/11/13 14:20:41;;;;;;;3.28;2.80;;;;;;;;;;10208636;29;20067;-58
2023/11/13 14:25:42;;;;;;;4.13;2.80;;;;;;;;;;10203048;29;20028;-61
2023/11/13 14:30:44;;;;;;;3.38;2.78;;;;;;;;;;10202963;29;20476;-56
2023/11/13 14:35:44;;;;;;;3.30;3.00;;;;;;;;;;10205459;29;20028;-58
2023/11/13 14:40:45;;;;;;;5.82;2.67;;;;;;;;;;10205536;29;20440;-56
2023/11/13 14:45:47;;;;;;;4.72;2.45;;;;;;;;;;10217106;28;20028;-59
2023/11/13 14:50:48;;;;;;;4.82;3.00;;;;;;;;;;10214437;29;20642;-58
2023/11/13 14:55:49;;;;;;;3.08;2.78;;;;;;;;;;10208779;29;20023;-57
2023/11/13 15:00:49;;;;;;;4.63;3.28;;;;;;;;;;10206233;29;20032;-57
2023/11/13 15:05:50;;;;;;;3.08;2.60;;;;;;;;;;10216275;29;20513;-57
2023/11/13 15:10:51;;;;;;;9.27;2.80;;;;;;;;;;10211423;29;20433;-59
2023/11/13 15:15:53;;;;;;;5.43;2.78;;;;;;;;;;10233702;29;20050;-57
2023/11/13 15:20:53;;;;;;;6.50;2.80;;;;;;;;;;10209625;29;20546;-58
2023/11/13 15:25:54;;;;;;;2.90;2.50;;;;;;;;;;10207681;29;20028;-57
2023/11/13 15:30:55;;;;;;;3.97;2.40;;;;;;;;;;10218839;29;20171;-58
2023/11/13 15:35:55;;;;;;;2.53;2.30;;;;;;;;;;10218508;29;20403;-58
2023/11/13 15:40:59;;;;;;;3.47;2.78;;;;;;;;;;10212044;29;20546;-57
2023/11/13 15:46:00;;;;;;;3.65;2.60;;;;;;;;;;10213835;29;20111;-62
2023/11/13 15:51:00;;;;;;;3.33;2.30;;;;;;;;;;10213882;28;20048;-62
2023/11/13 15:56:01;;;;;;;3.45;2.53;;;;;;;;;;10216921;29;20039;-61
2023/11/13 16:01:07;;;;;;;3.35;2.40;;;;;;;;;;10208847;29;20036;-62
2023/11/13 16:06:14;;;;;;;3.55;2.72;;;;;;;;;;10218001;29;20028;-60
2023/11/13 16:11:14;;;;;;;4.20;2.63;;;;;;;;;;10216068;29;20050;-62
2023/11/13 16:16:18;;;;;;;3.90;2.15;;;;;;;;;;10217624;29;20368;-58
2023/11/13 16:21:19;;;;;;;5.00;2.92;;;;;;;;;;10217569;28;20055;-57
2023/11/13 16:26:20;;;;;;;4.38;2.78;;;;;;;;;;10214422;29;20440;-60
2023/11/13 16:31:22;;;;;;;2.88;2.67;;;;;;;;;;10214027;29;20082;-56
2023/11/13 16:36:22;;;;;;;3.92;2.90;;;;;;;;;;10217285;29;20027;-60
2023/11/13 16:41:24;;;;;;;3.20;2.90;;;;;;;;;;10208496;29;20487;-58
2023/11/13 16:46:24;;;;;;;3.15;2.63;;;;;;;;;;10201135;29;20027;-57
2023/11/13 16:51:27;;;;;;;3.85;2.90;;;;;;;;;;10195076;29;20048;-57
2023/11/13 16:56:27;;;;;;;5.00;3.38;;;;;;;;;;10214067;28;20518;-57
2023/11/13 17:01:28;;;;;;;4.53;3.28;;;;;;;;;;10207410;29;20034;-57
2023/11/13 17:06:29;;;;;;;7.30;3.30;;;;;;;;;;10213600;29;20074;-55
2023/11/13 17:11:29;;;;;;;6.40;3.08;;;;;;;;;;10218700;29;20103;-60
2023/11/13 17:16:30;;;;;;;4.90;3.45;;;;;;;;;;10216714;28;20031;-60
2023/11/13 17:21:31;;;;;;;5.55;3.30;;;;;;;;;;10208366;29;20600;-60
2023/11/13 17:26:32;;;;;;;4.90;3.10;;;;;;;;;;10212986;29;20471;-60
2023/11/13 17:31:33;;;;;;;4.88;3.20;;;;;;;;;;10209951;29;20035;-60
2023/11/13 17:36:33;;;;;;;4.47;2.85;;;;;;;;;;10204657;29;20395;-59
2023/11/13 17:41:35;;;;;;;3.72;3.05;;;;;;;;;;10211488;29;20043;-60
2023/11/13 17:46:35;;;;;;;14.27;3.28;;;;;;;;;;10219709;29;20093;-56
2023/11/13 17:51:36;;;;;;;8.40;3.45;;;;;;;;;;10215719;29;20050;-56
2023/11/13 17:56:36;;;;;;;4.22;2.90;;;;;;;;;;10239009;29;20514;-56
2023/11/13 18:01:38;;;;;;;7.30;4.05;;;;;;;;;;10231175;29;20604;-56
2023/11/13 18:06:39;;;;;;;5.50;4.00;;;;;;;;;;10236079;29;20027;-53
2023/11/13 18:11:43;;;;;;;4.85;3.85;;;;;;;;;;10225437;28;20027;-55
2023/11/13 18:16:45;;;;;;;4.47;3.72;;;;;;;;;;10227018;29;20516;-54
2023/11/13 18:21:45;;;;;;;9.25;3.67;;;;;;;;;;10215435;29;20031;-55
2023/11/13 18:26:47;;;;;;;6.05;3.72;;;;;;;;;;10220920;29;20020;-56
2023/11/13 18:31:48;;;;;;;4.47;3.85;;;;;;;;;;10200282;29;20028;-57
2023/11/13 18:36:48;;;;;;;5.68;3.92;;;;;;;;;;10204366;29;20054;-54
2023/11/13 18:41:51;;;;;;;6.82;4.10;;;;;;;;;;10211896;29;20491;-57
2023/11/13 18:46:52;;;;;;;10.73;4.13;;;;;;;;;;10216909;29;20035;-56
2023/11/13 18:51:52;;;;;;;6.15;4.25;;;;;;;;;;10211328;29;20431;-55
2023/11/13 18:56:53;;;;;;;9.77;4.55;;;;;;;;;;10223186;29;20087;-55
2023/11/13 19:01:54;;;;;;;7.32;4.20;;;;;;;;;;10209899;28;20040;-57
2023/11/13 19:06:55;;;;;;;10.25;4.85;;;;;;;;;;10204793;29;20039;-60
2023/11/13 19:11:57;;;;;;;8.63;5.15;;;;;;;;;;10203555;29;20032;-62
2023/11/13 19:16:58;;;;;;;6.53;4.32;;;;;;;;;;10202632;29;20403;-56
2023/11/13 19:21:59;;;;;;;16.20;4.70;;;;;;;;;;10202006;29;20055;-61
2023/11/13 19:26:59;;;;;;;8.82;5.25;;;;;;;;;;10206046;29;20091;-60
2023/11/13 19:32:00;;;;;;;7.85;5.55;;;;;;;;;;10206060;29;21030;-55
2023/11/13 19:37:03;;;;;;;7.93;5.45;;;;;;;;;;10221487;29;20034;-56
2023/11/13 19:42:04;;;;;;;9.32;5.72;;;;;;;;;;10211093;28;20046;-56
2023/11/13 19:47:05;;;;;;;8.95;5.63;;;;;;;;;;10239016;29;20023;-61
2023/11/13 19:52:05;;;;;;;8.20;5.32;;;;;;;;;;10213016;29;20415;-55
2023/11/13 19:57:07;;;;;;;5.40;4.80;;;;;;;;;;10229561;29;20031;-53
2023/11/13 20:02:08;;;;;;;7.63;5.68;;;;;;;;;;10215606;28;20506;-58
2023/11/13 20:07:09;;;;;;;6.55;5.00;;;;;;;;;;10217187;29;20034;-53
2023/11/13 20:12:10;;;;;;;8.23;4.75;;;;;;;;;;10222293;29;20032;-56
2023/11/13 20:17:10;;;;;;;7.30;5.28;;;;;;;;;;10211076;29;20024;-57
2023/11/13 20:22:11;;;;;;;5.35;4.85;;;;;;;;;;10231872;29;20468;-56
2023/11/13 20:27:11;;;;;;;12.35;4.95;;;;;;;;;;10221942;28;20036;-59
2023/11/13 20:32:12;;;;;;;10.05;5.25;;;;;;;;;;10230961;28;20039;-58
2023/11/13 20:37:13;;;;;;;8.27;5.07;;;;;;;;;;10201839;29;20028;-62
2023/11/13 20:42:14;;;;;;;7.40;4.97;;;;;;;;;;10200860;28;20119;-61
2023/11/13 20:47:15;;;;;;;7.57;4.63;;;;;;;;;;10213167;29;20373;-61
2023/11/13 20:52:23;;;;;;;4.53;3.85;;;;;;;;;;10198159;29;20052;-61
2023/11/13 20:57:24;;;;;;;6.53;4.73;;;;;;;;;;10196429;29;20035;-60
2023/11/13 21:02:24;;;;;;;5.13;4.35;;;;;;;;;;10198487;29;20028;-62
2023/11/13 21:07:34;;;;;;;8.45;4.80;;;;;;;;;;10198576;29;20027;-61
2023/11/13 21:12:43;;;;;;;13.32;3.83;;;;;;;;;;10197750;29;20326;-60
2023/11/13 21:17:44;;;;;;;14.10;4.03;;;;;;;;;;10201864;29;20035;-63
2023/11/13 21:22:44;;;;;;;12.30;3.92;;;;;;;;;;10203016;29;20399;-61
2023/11/13 21:27:45;;;;;;;12.88;4.55;;;;;;;;;;10203880;29;20028;-61
2023/11/13 21:32:45;;;;;;;4.85;4.05;;;;;;;;;;10202150;29;20035;-58
2023/11/13 21:37:46;;;;;;;9.40;4.57;;;;;;;;;;10199761;29;20101;-61
2023/11/13 21:42:47;;;;;;;5.28;4.03;;;;;;;;;;10205763;29;20039;-62
2023/11/13 21:47:48;;;;;;;7.68;4.03;;;;;;;;;;10204133;29;20034;-61
2023/11/13 21:52:48;;;;;;;5.35;4.10;;;;;;;;;;10203618;29;20052;-58
2023/11/13 21:57:49;;;;;;;9.73;4.05;;;;;;;;;;10202683;29;20028;-59
2023/11/13 22:02:52;;;;;;;6.25;4.00;;;;;;;;;;10204995;29;20377;-57
2023/11/13 22:07:52;;;;;;;6.93;4.60;;;;;;;;;;10200618;29;20032;-61
2023/11/13 22:12:54;;;;;;;7.80;4.00;;;;;;;;;;10199459;29;20383;-61
2023/11/13 22:17:55;;;;;;;5.85;4.05;;;;;;;;;;10199269;29;20036;-62
2023/11/13 22:22:55;;;;;;;12.35;3.58;;;;;;;;;;10201524;29;20031;-62
2023/11/13 22:27:56;;;;;;;18.42;4.53;;;;;;;;;;10200342;29;20024;-60
2023/11/13 22:32:57;;;;;;;6.13;4.00;;;;;;;;;;10199454;29;20119;-56
2023/11/13 22:37:57;;;;;;;5.57;3.85;;;;;;;;;;10198428;29;20053;-62
2023/11/13 22:42:58;;;;;;;6.85;4.05;;;;;;;;;;10202030;29;20059;-61
2023/11/13 22:47:59;;;;;;;5.18;3.80;;;;;;;;;;10203303;29;20048;-59
2023/11/13 22:53:01;;;;;;;6.15;3.67;;;;;;;;;;10198371;29;20055;-61
2023/11/13 22:58:02;;;;;;;11.43;4.32;;;;;;;;;;10203206;29;20440;-61
2023/11/13 23:03:10;;;;;;;5.40;3.53;;;;;;;;;;10200166;29;20279;-58
2023/11/13 23:08:11;;;;;;;7.83;3.67;;;;;;;;;;10200735;29;20027;-59
2023/11/13 23:13:12;;;;;;;6.07;4.18;;;;;;;;;;10200487;29;20043;-59
2023/11/13 23:18:12;;;;;;;5.43;3.63;;;;;;;;;;10199308;29;20047;-62
2023/11/13 23:23:13;;;;;;;5.60;3.80;;;;;;;;;;10199718;29;20650;-62
2023/11/13 23:28:16;;;;;;;5.57;3.60;;;;;;;;;;10202096;29;20031;-56
2023/11/13 23:33:16;;;;;;;6.38;3.95;;;;;;;;;;10201857;29;20495;-55
2023/11/13 23:38:18;;;;;;;6.10;4.10;;;;;;;;;;10197108;29;20027;-60
2023/11/13 23:43:19;;;;;;;4.60;3.70;;;;;;;;;;10202244;29;20090;-60
2023/11/13 23:48:20;;;;;;;5.10;3.92;;;;;;;;;;10201429;29;20491;-60
2023/11/13 23:53:21;;;;;;;8.68;3.50;;;;;;;;;;10202900;29;20412;-57
2023/11/13 23:58:21;;;;;;;5.43;3.85;;;;;;;;;;10201020;29;20035;-59
